createdAt,value
2022-09-07T00:00:16.062Z,15.07
2022-09-07T00:02:43.704Z,14.67
2022-09-07T00:05:11.373Z,14.67
2022-09-07T00:07:39.156Z,14.17
2022-09-07T00:10:08.274Z,15.67
2022-09-07T00:12:35.913Z,14.63
2022-09-07T00:15:08.144Z,15.07
2022-09-07T00:17:37.325Z,14.73
2022-09-07T00:20:06.711Z,13.50
2022-09-07T00:22:34.517Z,15.13
2022-09-07T00:25:02.208Z,13.60
2022-09-07T00:27:29.768Z,14.57
2022-09-07T00:29:57.474Z,14.30
2022-09-07T00:32:25.108Z,14.20
2022-09-07T00:34:54.096Z,14.63
2022-09-07T00:37:21.801Z,14.53
2022-09-07T00:39:50.490Z,14.07
2022-09-07T00:42:19.873Z,14.20
2022-09-07T00:45:01.761Z,13.80
2022-09-07T00:47:33.031Z,14.13
2022-09-07T00:50:05.478Z,13.87
2022-09-07T00:52:34.613Z,13.53
2022-09-07T00:55:04.849Z,14.33
2022-09-07T00:57:32.566Z,13.97
2022-09-07T01:00:00.933Z,14.07
2022-09-07T01:02:28.643Z,14.30
2022-09-07T01:05:07.567Z,14.30
2022-09-07T01:07:37.837Z,14.27
2022-09-07T01:10:06.679Z,14.87
2022-09-07T01:12:34.339Z,13.33
2022-09-07T01:15:02.413Z,15.17
2022-09-07T01:17:40.805Z,14.87
2022-09-07T01:20:26.417Z,14.90
2022-09-07T01:23:32.799Z,14.03
2022-09-07T01:26:20.079Z,14.80
2022-09-07T01:28:51.717Z,14.60
2022-09-07T01:31:27.394Z,14.33
2022-09-07T01:34:02.182Z,14.90
2022-09-07T01:36:34.836Z,14.80
2022-09-07T01:39:04.338Z,14.60
2022-09-07T01:41:34.934Z,13.63
2022-09-07T01:44:07.419Z,13.10
2022-09-07T01:46:38.318Z,14.63
2022-09-07T01:49:11.187Z,16.47
2022-09-07T01:51:43.813Z,16.90
2022-09-07T01:54:14.542Z,15.97
2022-09-07T01:56:44.639Z,14.87
2022-09-07T01:59:18.207Z,14.00
2022-09-07T02:01:49.013Z,13.37
2022-09-07T02:04:21.799Z,22.57
2022-09-07T02:06:51.299Z,22.53
2022-09-07T02:09:23.969Z,22.13
2022-09-07T02:11:51.607Z,23.03
2022-09-07T02:14:24.109Z,21.93
2022-09-07T02:16:57.089Z,22.07
2022-09-07T02:19:27.401Z,21.17
2022-09-07T02:22:00.861Z,21.50
2022-09-07T02:24:31.392Z,20.73
2022-09-07T02:27:00.329Z,20.83
2022-09-07T02:29:31.066Z,21.47
2022-09-07T02:31:58.962Z,21.57
2022-09-07T02:34:26.565Z,22.40
2022-09-07T02:36:55.037Z,21.70
2022-09-07T02:39:22.636Z,21.37
2022-09-07T02:41:50.381Z,21.03
2022-09-07T02:44:20.708Z,21.03
2022-09-07T02:47:02.536Z,20.97
2022-09-07T02:49:43.439Z,20.93
2022-09-07T02:52:18.231Z,21.10
2022-09-07T02:54:54.293Z,21.50
2022-09-07T02:57:28.373Z,20.70
2022-09-07T03:00:05.599Z,20.50
2022-09-07T03:02:41.468Z,21.07
2022-09-07T03:05:13.930Z,23.40
2022-09-07T03:07:45.677Z,21.00
2022-09-07T03:10:14.254Z,20.60
2022-09-07T03:12:44.714Z,19.83
2022-09-07T03:15:12.962Z,20.60
2022-09-07T03:17:42.365Z,21.20
2022-09-07T03:20:10.714Z,20.67
2022-09-07T03:22:38.461Z,21.23
2022-09-07T03:25:07.366Z,21.13
2022-09-07T03:27:35.021Z,22.13
2022-09-07T03:30:02.965Z,21.37
2022-09-07T03:32:35.341Z,19.60
2022-09-07T03:35:05.296Z,20.73
2022-09-07T03:37:33.125Z,19.83
2022-09-07T03:40:00.796Z,18.67
2022-09-07T03:42:28.664Z,18.73
2022-09-07T03:44:56.265Z,18.77
2022-09-07T03:47:23.920Z,18.33
2022-09-07T03:49:51.752Z,18.60
2022-09-07T03:52:20.751Z,18.40
2022-09-07T03:54:48.361Z,19.97
2022-09-07T03:57:15.941Z,19.33
2022-09-07T03:59:43.537Z,19.20
2022-09-07T04:02:11.115Z,18.53
2022-09-07T04:04:38.763Z,18.10
2022-09-07T04:07:06.825Z,19.67
2022-09-07T04:09:35.869Z,18.50
2022-09-07T04:12:03.985Z,18.93
2022-09-07T04:14:31.598Z,18.93
2022-09-07T04:16:59.275Z,18.83
2022-09-07T04:19:27.077Z,19.17
2022-09-07T04:21:54.678Z,19.00
2022-09-07T04:24:24.064Z,18.53
2022-09-07T04:26:53.365Z,18.50
2022-09-07T04:29:20.933Z,18.20
2022-09-07T04:31:48.546Z,18.60
2022-09-07T04:34:16.209Z,18.30
2022-09-07T04:36:43.770Z,17.87
2022-09-07T04:39:12.206Z,18.10
2022-09-07T04:41:39.853Z,16.53
2022-09-07T04:44:08.785Z,17.57
2022-09-07T04:46:37.676Z,16.90
2022-09-07T04:49:06.858Z,16.87
2022-09-07T04:51:34.806Z,16.73
2022-09-07T04:54:03.813Z,17.47
2022-09-07T04:56:32.444Z,17.30
2022-09-07T04:59:00.373Z,18.33
2022-09-07T05:01:29.858Z,17.77
2022-09-07T05:03:57.500Z,17.80
2022-09-07T05:06:25.141Z,18.30
2022-09-07T05:08:54.169Z,18.40
2022-09-07T05:11:27.954Z,18.17
2022-09-07T05:13:56.737Z,18.77
2022-09-07T05:16:25.504Z,19.63
2022-09-07T05:18:56.106Z,19.03
2022-09-07T05:21:25.282Z,18.90
2022-09-07T05:23:54.600Z,19.63
2022-09-07T05:26:24.374Z,19.17
2022-09-07T05:28:52.420Z,19.27
2022-09-07T05:31:21.929Z,18.60
2022-09-07T05:36:40.282Z,19.53
2022-09-07T05:39:11.290Z,18.40
2022-09-07T05:41:39.069Z,19.60
2022-09-07T05:46:54.930Z,20.43
2022-09-07T05:49:22.558Z,20.07
2022-09-07T05:51:51.506Z,20.10
2022-09-07T05:54:19.400Z,20.47
2022-09-07T05:56:47.142Z,21.03
2022-09-07T05:59:14.724Z,20.73
2022-09-07T06:01:42.539Z,20.53
2022-09-07T06:04:10.258Z,20.50
2022-09-07T06:06:39.473Z,20.87
2022-09-07T06:09:12.612Z,20.23
2022-09-07T06:11:40.192Z,20.93
2022-09-07T06:14:07.833Z,21.27
2022-09-07T06:16:35.755Z,19.67
2022-09-07T06:19:06.831Z,20.70
2022-09-07T06:21:36.682Z,20.50
2022-09-07T06:24:04.744Z,20.00
2022-09-07T06:26:33.831Z,20.37
2022-09-07T06:29:03.091Z,20.57
2022-09-07T06:31:30.837Z,21.10
2022-09-07T06:33:58.763Z,21.57
2022-09-07T06:36:27.873Z,20.80
2022-09-07T06:38:56.169Z,21.43
2022-09-07T06:44:19.833Z,20.30
2022-09-07T06:47:03.688Z,20.70
2022-09-07T06:49:31.938Z,20.37
2022-09-07T06:51:59.518Z,19.70
2022-09-07T06:57:14.769Z,20.43
2022-09-07T06:59:43.696Z,19.30
2022-09-07T07:02:12.944Z,19.97
2022-09-07T07:04:41.429Z,19.50
2022-09-07T07:07:11.585Z,20.00
2022-09-07T07:09:39.545Z,20.30
2022-09-07T07:12:07.395Z,20.60
2022-09-07T07:14:38.391Z,20.40
2022-09-07T07:17:10.243Z,21.27
2022-09-07T07:19:37.849Z,21.40
2022-09-07T07:22:23.938Z,21.33
2022-09-07T07:24:53.181Z,21.73
2022-09-07T07:27:21.434Z,21.50
2022-09-07T07:29:49.511Z,22.63
2022-09-07T07:32:18.457Z,21.77
2022-09-07T07:34:46.010Z,22.17
2022-09-07T07:37:13.757Z,22.57
2022-09-07T07:42:29.693Z,21.83
2022-09-07T07:47:49.960Z,21.20
2022-09-07T07:50:34.159Z,21.10
2022-09-07T07:55:49.772Z,20.67
2022-09-07T07:58:18.707Z,20.90
2022-09-07T08:00:55.207Z,20.70
2022-09-07T08:03:26.019Z,20.00
2022-09-07T08:05:53.732Z,19.87
2022-09-07T08:08:24.082Z,19.37
2022-09-07T08:10:53.208Z,20.48
2022-09-07T08:13:21.199Z,20.23
2022-09-07T08:15:48.936Z,21.00
2022-09-07T08:18:17.826Z,20.63
2022-09-07T08:20:46.628Z,20.65
2022-09-07T08:23:15.093Z,20.52
2022-09-07T08:25:50.231Z,21.02
2022-09-07T08:28:17.708Z,21.42
2022-09-07T08:30:45.148Z,20.77
2022-09-07T08:33:12.813Z,20.70
2022-09-07T08:35:40.411Z,20.55
2022-09-07T08:38:09.206Z,20.58
2022-09-07T08:40:38.048Z,20.60
2022-09-07T08:43:13.924Z,20.70
2022-09-07T08:45:44.917Z,21.77
2022-09-07T08:48:15.489Z,22.80
2022-09-07T08:50:48.534Z,21.05
2022-09-07T08:56:24.684Z,22.88
2022-09-07T08:58:53.782Z,20.27
2022-09-07T09:01:37.862Z,22.83
2022-09-07T09:04:17.066Z,21.10
2022-09-07T09:07:08.153Z,21.27
2022-09-07T09:09:46.956Z,20.80
2022-09-07T09:12:21.830Z,20.77
2022-09-07T09:15:01.189Z,20.77
2022-09-07T09:17:30.540Z,20.02
2022-09-07T09:20:05.474Z,20.23
2022-09-07T09:22:32.958Z,20.15
2022-09-07T09:25:05.675Z,20.60
2022-09-07T09:27:34.845Z,20.25
2022-09-07T09:46:35.195Z,20.58
2022-09-07T09:49:48.433Z,21.00
2022-09-07T09:52:43.427Z,20.17
2022-09-07T10:04:02.259Z,21.23
2022-09-07T10:06:33.438Z,19.85
2022-09-07T10:09:02.707Z,17.50
2022-09-07T10:14:33.385Z,16.52
2022-09-07T10:17:02.348Z,16.10
2022-09-07T10:19:34.609Z,16.10
2022-09-07T10:22:05.146Z,16.15
2022-09-07T10:24:37.022Z,16.52
2022-09-07T10:27:20.154Z,16.90
2022-09-07T10:29:47.772Z,16.80
2022-09-07T10:32:23.643Z,15.77
2022-09-07T10:35:01.810Z,15.82
2022-09-07T10:37:41.049Z,16.02
2022-09-07T10:40:20.796Z,15.23
2022-09-07T10:45:50.073Z,15.63
2022-09-07T10:48:24.606Z,15.52
2022-09-07T10:50:54.810Z,15.32
2022-09-07T10:53:41.312Z,16.02
2022-09-07T10:56:11.757Z,15.80
2022-09-07T10:59:04.878Z,15.80
2022-09-07T11:01:44.456Z,15.70
2022-09-07T11:04:27.625Z,15.85
2022-09-07T11:06:59.830Z,15.95
2022-09-07T11:09:52.811Z,15.70
2022-09-07T11:12:27.830Z,15.90
2022-09-07T11:15:03.378Z,15.65
2022-09-07T11:17:52.749Z,15.77
2022-09-07T11:20:26.778Z,15.20
2022-09-07T11:22:59.650Z,15.50
2022-09-07T11:25:32.912Z,16.55
2022-09-07T11:28:02.883Z,16.88
2022-09-07T11:30:32.455Z,16.02
2022-09-07T11:33:04.132Z,16.80
2022-09-07T11:35:46.494Z,16.70
2022-09-07T11:38:19.619Z,17.58
2022-09-07T11:40:57.946Z,16.05
2022-09-07T11:43:29.349Z,16.60
2022-09-07T11:46:00.954Z,17.77
2022-09-07T11:48:32.797Z,15.02
2022-09-07T11:51:03.248Z,16.10
2022-09-07T11:53:32.989Z,16.73
2022-09-07T11:56:04.811Z,16.77
2022-09-07T11:58:49.076Z,17.77
2022-09-07T12:01:23.878Z,17.38
2022-09-07T12:04:06.188Z,18.30
2022-09-07T12:07:00.501Z,17.35
2022-09-07T12:09:40.926Z,18.00
2022-09-07T12:12:23.125Z,17.70
2022-09-07T12:15:02.334Z,17.73
2022-09-07T12:17:41.248Z,18.10
2022-09-07T12:20:14.297Z,18.67
2022-09-07T12:22:58.890Z,17.95
2022-09-07T12:25:29.979Z,18.05
2022-09-07T12:27:58.918Z,17.25
2022-09-07T12:30:57.344Z,18.17
2022-09-07T12:33:27.858Z,17.52
2022-09-07T12:35:58.732Z,17.92
2022-09-07T12:39:07.986Z,16.90
2022-09-07T12:41:47.341Z,16.98
2022-09-07T12:44:24.932Z,16.98
2022-09-07T12:46:56.909Z,17.23
2022-09-07T12:49:52.521Z,16.88
2022-09-07T12:52:45.269Z,17.88
2022-09-07T12:55:28.303Z,18.58
2022-09-07T12:58:05.112Z,18.63
2022-09-07T13:00:40.512Z,19.10
2022-09-07T13:06:19.321Z,18.50
2022-09-07T13:09:13.417Z,18.55
2022-09-07T13:11:41.429Z,18.73
2022-09-07T13:14:20.490Z,18.92
2022-09-07T13:20:08.232Z,18.30
2022-09-07T13:22:56.134Z,18.20
2022-09-07T13:25:45.415Z,17.90
2022-09-07T13:28:23.588Z,17.73
2022-09-07T13:31:01.968Z,18.60
2022-09-07T13:33:50.318Z,17.85
2022-09-07T13:36:25.501Z,18.42
2022-09-07T13:38:53.823Z,18.50
2022-09-07T13:41:23.715Z,17.92
2022-09-07T13:43:59.207Z,18.58
2022-09-07T13:46:37.000Z,18.23
2022-09-07T13:49:08.999Z,17.85
2022-09-07T13:51:40.910Z,17.85
2022-09-07T13:54:14.203Z,17.90
2022-09-07T13:56:48.458Z,17.67
2022-09-07T13:59:19.869Z,16.92
2022-09-07T14:01:48.825Z,17.27
2022-09-07T14:04:23.497Z,18.45
2022-09-07T14:06:51.070Z,18.50
2022-09-07T14:09:19.922Z,18.13
2022-09-07T14:11:49.886Z,18.55
2022-09-07T14:14:20.192Z,18.08
2022-09-07T14:16:50.037Z,17.60
2022-09-07T14:19:21.729Z,18.30
2022-09-07T14:22:00.229Z,19.08
2022-09-07T14:24:31.452Z,18.13
2022-09-07T14:26:59.293Z,19.10
2022-09-07T14:29:29.887Z,18.60
2022-09-07T14:31:58.733Z,18.90
2022-09-07T14:34:31.354Z,18.60
2022-09-07T14:37:01.714Z,17.75
2022-09-07T14:39:30.712Z,18.00
2022-09-07T14:41:59.154Z,18.25
2022-09-07T14:44:28.408Z,18.13
2022-09-07T14:46:57.229Z,18.23
2022-09-07T14:49:25.165Z,18.17
2022-09-07T14:51:55.166Z,17.85
2022-09-07T14:54:24.195Z,17.98
2022-09-07T14:57:06.641Z,18.77
2022-09-07T14:59:42.668Z,18.30
2022-09-07T15:02:33.881Z,18.25
2022-09-07T15:05:29.175Z,17.88
2022-09-07T15:07:59.676Z,17.55
2022-09-07T15:10:35.107Z,17.67
2022-09-07T15:13:04.401Z,17.45
2022-09-07T15:15:33.588Z,17.20
2022-09-07T15:18:07.746Z,17.90
2022-09-07T15:20:41.047Z,18.33
2022-09-07T15:23:14.636Z,18.15
2022-09-07T15:25:45.450Z,18.65
2022-09-07T15:34:09.661Z,18.48
2022-09-07T15:36:37.204Z,18.27
2022-09-07T15:39:07.229Z,19.17
2022-09-07T15:41:34.841Z,19.20
2022-09-07T15:44:02.659Z,19.33
2022-09-07T15:46:30.199Z,19.17
2022-09-07T15:48:58.203Z,19.33
2022-09-07T15:54:15.687Z,19.10
2022-09-07T15:57:47.655Z,18.70
2022-09-07T15:59:31.535Z,19.48
2022-09-07T16:01:59.418Z,19.52
2022-09-07T16:04:27.117Z,19.35
2022-09-07T16:06:54.679Z,19.23
2022-09-07T16:09:23.474Z,19.00
2022-09-07T16:11:51.299Z,18.17
2022-09-07T16:14:19.044Z,18.10
2022-09-07T16:19:35.347Z,18.30
2022-09-07T16:22:04.029Z,17.87
2022-09-07T16:24:34.213Z,18.42
2022-09-07T16:27:01.762Z,17.87
2022-09-07T16:29:29.246Z,18.07
2022-09-07T16:34:44.889Z,18.23
2022-09-07T16:37:12.579Z,18.23
2022-09-07T16:39:41.971Z,17.47
2022-09-07T16:42:09.465Z,17.70
2022-09-07T16:44:37.033Z,17.17
2022-09-07T16:47:04.724Z,17.23
2022-09-07T16:49:32.241Z,16.47
2022-09-07T16:51:59.685Z,16.77
2022-09-07T16:54:27.293Z,16.50
2022-09-07T16:56:56.090Z,16.23
2022-09-07T16:59:26.600Z,16.17
2022-09-07T17:01:54.302Z,16.87
2022-09-07T17:04:22.182Z,16.10
2022-09-07T17:06:51.844Z,16.27
2022-09-07T17:09:20.445Z,15.87
2022-09-07T17:11:47.998Z,15.70
2022-09-07T17:14:16.766Z,15.87
2022-09-07T17:16:44.298Z,15.23
2022-09-07T17:22:00.650Z,15.33
2022-09-07T17:24:28.378Z,15.40
2022-09-07T17:26:55.955Z,15.17
2022-09-07T17:29:24.760Z,15.00
2022-09-07T17:34:39.673Z,15.07
2022-09-07T17:37:08.326Z,14.73
2022-09-07T17:39:38.518Z,14.53
2022-09-07T17:42:06.388Z,14.83
2022-09-07T17:44:38.055Z,14.93
2022-09-07T17:47:06.282Z,15.07
2022-09-07T17:49:33.801Z,14.97
2022-09-07T17:52:01.577Z,14.23
2022-09-07T17:54:29.094Z,14.50
2022-09-07T17:56:56.560Z,14.60
2022-09-07T18:02:13.901Z,14.10
2022-09-07T18:04:41.449Z,13.97
2022-09-07T18:07:09.043Z,13.03
2022-09-07T18:09:36.663Z,14.13
2022-09-07T18:12:04.817Z,13.33
2022-09-07T18:14:32.339Z,13.83
2022-09-07T18:17:00.381Z,13.20
2022-09-07T18:19:29.295Z,12.33
2022-09-07T18:21:56.955Z,12.43
2022-09-07T18:24:25.134Z,12.73
2022-09-07T18:26:54.270Z,12.90
2022-09-07T18:29:29.399Z,11.83
2022-09-07T18:31:58.970Z,12.03
2022-09-07T18:34:28.622Z,12.30
2022-09-07T18:36:58.310Z,12.63
2022-09-07T18:39:25.958Z,12.50
2022-09-07T18:41:54.881Z,12.53
2022-09-07T18:47:17.495Z,13.33
2022-09-07T18:49:45.305Z,12.37
2022-09-07T18:55:02.160Z,11.97
2022-09-07T18:57:29.935Z,11.80
2022-09-07T18:59:57.559Z,11.23
2022-09-07T19:02:25.709Z,12.37
2022-09-07T19:07:43.950Z,11.07
2022-09-07T19:10:15.010Z,11.33
2022-09-07T19:12:45.905Z,11.33
2022-09-07T19:15:15.837Z,10.63
2022-09-07T19:17:44.564Z,11.30
2022-09-07T19:20:13.384Z,11.03
2022-09-07T19:22:42.858Z,11.07
2022-09-07T19:25:12.686Z,10.87
2022-09-07T19:27:40.960Z,11.23
2022-09-07T19:30:10.453Z,11.63
2022-09-07T19:32:38.474Z,11.67
2022-09-07T19:35:06.559Z,11.80
2022-09-07T19:37:34.346Z,11.30
2022-09-07T19:40:02.968Z,11.10
2022-09-07T19:42:32.486Z,11.40
2022-09-07T19:45:00.783Z,11.63
2022-09-07T19:47:28.871Z,10.97
2022-09-07T19:49:56.486Z,12.10
2022-09-07T19:52:24.191Z,12.07
2022-09-07T19:54:51.699Z,11.27
2022-09-07T19:57:19.274Z,10.47
2022-09-07T19:59:48.872Z,12.17
2022-09-07T20:02:16.603Z,10.73
2022-09-07T20:04:44.129Z,10.57
2022-09-07T20:07:12.674Z,11.20
2022-09-07T20:09:40.305Z,10.87
2022-09-07T20:12:08.765Z,11.53
2022-09-07T20:14:36.324Z,9.77
2022-09-07T20:17:05.282Z,10.00
2022-09-07T20:19:32.814Z,9.20
2022-09-07T20:22:00.479Z,8.73
2022-09-07T20:24:28.360Z,9.37
2022-09-07T20:26:55.841Z,9.13
2022-09-07T20:29:27.830Z,9.97
2022-09-07T20:31:56.716Z,11.00
2022-09-07T20:34:25.828Z,9.73
2022-09-07T20:36:53.589Z,10.43
2022-09-07T20:39:21.783Z,9.93
2022-09-07T20:41:49.304Z,11.40
2022-09-07T20:44:17.105Z,11.27
2022-09-07T20:46:44.774Z,10.77
2022-09-07T20:49:12.406Z,10.27
2022-09-07T20:51:41.220Z,10.60
2022-09-07T20:54:09.038Z,11.20
2022-09-07T20:56:36.541Z,11.33
2022-09-07T20:59:04.535Z,10.80
2022-09-07T21:01:32.733Z,11.43
2022-09-07T21:04:01.583Z,11.27
2022-09-07T21:06:29.931Z,9.93
2022-09-07T21:08:59.045Z,9.30
2022-09-07T21:11:28.545Z,9.00
2022-09-07T21:13:57.059Z,10.07
2022-09-07T21:16:25.182Z,10.60
2022-09-07T21:18:54.097Z,10.70
2022-09-07T21:21:21.737Z,10.40
2022-09-07T21:23:49.274Z,9.93
2022-09-07T21:26:22.159Z,10.87
2022-09-07T21:28:55.182Z,10.10
2022-09-07T21:31:22.732Z,10.43
2022-09-07T21:33:54.759Z,10.97
2022-09-07T21:36:22.282Z,11.33
2022-09-07T21:38:49.946Z,11.00
2022-09-07T21:41:19.117Z,11.00
2022-09-07T21:43:48.142Z,11.87
2022-09-07T21:46:17.302Z,11.93
2022-09-07T21:48:45.635Z,11.23
2022-09-07T21:51:13.508Z,11.77
2022-09-07T21:53:41.292Z,12.20
2022-09-07T21:56:11.834Z,12.40
2022-09-07T21:58:39.772Z,12.63
2022-09-07T22:01:14.283Z,13.67
2022-09-07T22:03:42.182Z,13.00
2022-09-07T22:06:10.282Z,12.53
2022-09-07T22:08:39.895Z,12.77
2022-09-07T22:11:09.363Z,12.00
2022-09-07T22:13:37.375Z,13.00
2022-09-07T22:16:05.711Z,12.17
2022-09-07T22:18:37.104Z,12.50
2022-09-07T22:21:06.197Z,12.73
2022-09-07T22:23:33.954Z,13.20
2022-09-07T22:26:01.516Z,13.03
2022-09-07T22:28:29.796Z,13.10
2022-09-07T22:30:57.935Z,13.07
2022-09-07T22:33:25.544Z,12.00
2022-09-07T22:35:54.382Z,12.70
2022-09-07T22:38:21.950Z,13.93
2022-09-07T22:40:49.551Z,12.50
2022-09-07T22:43:17.075Z,12.10
2022-09-07T22:45:44.525Z,13.93
2022-09-07T22:48:12.094Z,11.77
2022-09-07T22:50:39.580Z,11.77
2022-09-07T22:53:08.462Z,11.70
2022-09-07T22:55:39.108Z,12.23
2022-09-07T22:58:06.640Z,13.77
2022-09-07T23:00:36.571Z,14.07
2022-09-07T23:03:04.901Z,14.77
2022-09-07T23:05:36.963Z,13.23
2022-09-07T23:08:04.992Z,14.07
2022-09-07T23:10:35.983Z,14.37
2022-09-07T23:13:03.741Z,13.53
2022-09-07T23:15:31.319Z,12.97
2022-09-07T23:17:58.781Z,14.77
2022-09-07T23:20:26.411Z,13.63
2022-09-07T23:22:53.981Z,15.40
2022-09-07T23:25:21.481Z,14.60
2022-09-07T23:27:50.292Z,13.40
2022-09-07T23:30:17.798Z,13.87
2022-09-07T23:32:45.314Z,13.80
2022-09-07T23:35:16.559Z,14.10
2022-09-07T23:37:44.282Z,14.37
2022-09-07T23:40:12.187Z,14.30
2022-09-07T23:42:39.685Z,17.20
2022-09-07T23:45:09.990Z,15.33
2022-09-07T23:47:37.472Z,15.70
2022-09-07T23:50:05.468Z,15.20
2022-09-07T23:52:33.353Z,16.30
2022-09-07T23:55:00.947Z,16.63
2022-09-07T23:57:28.414Z,16.73
2022-09-07T23:59:55.922Z,16.40
